Aviation Digital Data Service (ADDS)

Output produced by METARs form (0204 UTC 22 April 2019)
found at http://www.aviationweather.gov/metar/data/
 
METAR text: CYLW 220100Z AUTO 18006KT 9SM CLR 17/01 A3007 RMK SLP194 DENSITY ALT 1700FT
Conditions at: CYLW (KELOWNA APT , BC, CA) observed 0100 UTC 22 April 2019
Temperature: 17.0°C (63°F)
Dewpoint: 1.0°C (34°F) [RH = 34%]
Pressure (altimeter): 30.07 inches Hg (1018.4 mb)
[Sea-level pressure: 1019.4 mb]
Winds: from the S (180 degrees) at 7 MPH (6 knots; 3.1 m/s)
Visibility: 9 miles (14 km)
Ceiling: at least 12,000 feet AGL
Clouds: sky clear below 12,000 feet AGL
Weather: no significant weather observed at this time

METAR text: CYLW 220000Z AUTO VRB02KT 9SM FEW140 20/M03 A3007 RMK SLP193 DENSITY ALT 2000FT
Conditions at: CYLW (KELOWNA APT , BC, CA) observed 0000 UTC 22 April 2019
Temperature: 20.0°C (68°F)
Dewpoint: -3.0°C (27°F) [RH = 21%]
Pressure (altimeter): 30.07 inches Hg (1018.4 mb)
[Sea-level pressure: 1019.3 mb]
Winds: variable direction winds at 2 MPH (2 knots; 1.0 m/s)
Visibility: 9 miles (14 km)
Ceiling: at least 12,000 feet AGL
Clouds: few clouds at 14000 feet AGL
Weather: no significant weather observed at this time

METAR text: CYLW 212300Z AUTO 18004KT 160V220 9SM CLR 18/02 A3007 RMK SLP194 DENSITY ALT 1900FT
Conditions at: CYLW (KELOWNA APT , BC, CA) observed 2300 UTC 21 April 2019
Temperature: 18.0°C (64°F)
Dewpoint: 2.0°C (36°F) [RH = 34%]
Pressure (altimeter): 30.07 inches Hg (1018.4 mb)
[Sea-level pressure: 1019.4 mb]
Winds: from the S (180 degrees) at 5 MPH (4 knots; 2.1 m/s)
Visibility: 9 miles (14 km)
Ceiling: at least 12,000 feet AGL
Clouds: sky clear below 12,000 feet AGL
Weather: no significant weather observed at this time

METAR text: CYLW 212200Z AUTO 21006KT 9SM CLR 19/M00 A3009 RMK SLP200 DENSITY ALT 1900FT
Conditions at: CYLW (KELOWNA APT , BC, CA) observed 2200 UTC 21 April 2019
Temperature: 19.0°C (66°F)
Dewpoint: 0.0°C (32°F) [RH = 28%]
Pressure (altimeter): 30.09 inches Hg (1019.0 mb)
[Sea-level pressure: 1020.0 mb]
Winds: from the SSW (210 degrees) at 7 MPH (6 knots; 3.1 m/s)
Visibility: 9 miles (14 km)
Ceiling: at least 12,000 feet AGL
Clouds: sky clear below 12,000 feet AGL
Weather: no significant weather observed at this time

METAR text: CYLW 212100Z AUTO 20004KT 130V220 9SM CLR 18/00 A3011 RMK SLP205 DENSITY ALT 1800FT
Conditions at: CYLW (KELOWNA APT , BC, CA) observed 2100 UTC 21 April 2019
Temperature: 18.0°C (64°F)
Dewpoint: 0.0°C (32°F) [RH = 30%]
Pressure (altimeter): 30.11 inches Hg (1019.7 mb)
[Sea-level pressure: 1020.5 mb]
Winds: from the SSW (200 degrees) at 5 MPH (4 knots; 2.1 m/s)
Visibility: 9 miles (14 km)
Ceiling: at least 12,000 feet AGL
Clouds: sky clear below 12,000 feet AGL
Weather: no significant weather observed at this time

METAR text: CYLW 212000Z AUTO 00000KT 9SM CLR 16/M00 A3013 RMK SLP214 DENSITY ALT 1600FT
Conditions at: CYLW (KELOWNA APT , BC, CA) observed 2000 UTC 21 April 2019
Temperature: 16.0°C (61°F)
Dewpoint: 0.0°C (32°F) [RH = 34%]
Pressure (altimeter): 30.13 inches Hg (1020.4 mb)
[Sea-level pressure: 1021.4 mb]
Winds: calm
Visibility: 9 miles (14 km)
Ceiling: at least 12,000 feet AGL
Clouds: sky clear below 12,000 feet AGL
Weather: no significant weather observed at this time

METAR text: CYLW 211900Z AUTO 00000KT 9SM CLR 13/M02 A3016 RMK SLP224
Conditions at: CYLW (KELOWNA APT , BC, CA) observed 1900 UTC 21 April 2019
Temperature: 13.0°C (55°F)
Dewpoint: -2.0°C (28°F) [RH = 35%]
Pressure (altimeter): 30.16 inches Hg (1021.4 mb)
[Sea-level pressure: 1022.4 mb]
Winds: calm
Visibility: 9 miles (14 km)
Ceiling: at least 12,000 feet AGL
Clouds: sky clear below 12,000 feet AGL
Weather: no significant weather observed at this time

METAR text: CYLW 211800Z AUTO VRB02KT 9SM CLR 11/M01 A3019 RMK SLP235
Conditions at: CYLW (KELOWNA APT , BC, CA) observed 1800 UTC 21 April 2019
Temperature: 11.0°C (52°F)
Dewpoint: -1.0°C (30°F) [RH = 43%]
Pressure (altimeter): 30.19 inches Hg (1022.4 mb)
[Sea-level pressure: 1023.5 mb]
Winds: variable direction winds at 2 MPH (2 knots; 1.0 m/s)
Visibility: 9 miles (14 km)
Ceiling: at least 12,000 feet AGL
Clouds: sky clear below 12,000 feet AGL
Weather: no significant weather observed at this time

METAR text: CYLW 211700Z AUTO 34007G15KT 9SM CLR 09/M00 A3021 RMK SLP241
Conditions at: CYLW (KELOWNA APT , BC, CA) observed 1700 UTC 21 April 2019
Temperature: 9.0°C (48°F)
Dewpoint: 0.0°C (32°F) [RH = 53%]
Pressure (altimeter): 30.21 inches Hg (1023.1 mb)
[Sea-level pressure: 1024.1 mb]
Winds: from the NNW (340 degrees) at 8 MPH (7 knots; 3.6 m/s)
gusting to 17 MPH (15 knots; 7.7 m/s)
Visibility: 9 miles (14 km)
Ceiling: at least 12,000 feet AGL
Clouds: sky clear below 12,000 feet AGL
Weather: no significant weather observed at this time

METAR text: CYLW 211600Z AUTO VRB02KT 9SM CLR 07/M02 A3020 RMK SLP240
Conditions at: CYLW (KELOWNA APT , BC, CA) observed 1600 UTC 21 April 2019
Temperature: 7.0°C (45°F)
Dewpoint: -2.0°C (28°F) [RH = 53%]
Pressure (altimeter): 30.20 inches Hg (1022.8 mb)
[Sea-level pressure: 1024.0 mb]
Winds: variable direction winds at 2 MPH (2 knots; 1.0 m/s)
Visibility: 9 miles (14 km)
Ceiling: at least 12,000 feet AGL
Clouds: sky clear below 12,000 feet AGL
Weather: no significant weather observed at this time

METAR text: CYLW 211500Z AUTO 03004KT 350V060 9SM CLR 05/M00 A3021 RMK SLP242
Conditions at: CYLW (KELOWNA APT , BC, CA) observed 1500 UTC 21 April 2019
Temperature: 5.0°C (41°F)
Dewpoint: 0.0°C (32°F) [RH = 70%]
Pressure (altimeter): 30.21 inches Hg (1023.1 mb)
[Sea-level pressure: 1024.2 mb]
Winds: from the NNE (30 degrees) at 5 MPH (4 knots; 2.1 m/s)
Visibility: 9 miles (14 km)
Ceiling: at least 12,000 feet AGL
Clouds: sky clear below 12,000 feet AGL
Weather: no significant weather observed at this time

METAR text: CYLW 211400Z AUTO 36002KT 9SM CLR M00/M02 A3021 RMK SLP243
Conditions at: CYLW (KELOWNA APT , BC, CA) observed 1400 UTC 21 April 2019
Temperature: 0.0°C (32°F)
Dewpoint: -2.0°C (28°F) [RH = 86%]
Pressure (altimeter): 30.21 inches Hg (1023.1 mb)
[Sea-level pressure: 1024.3 mb]
Winds: from the N (360 degrees) at 2 MPH (2 knots; 1.0 m/s)
Visibility: 9 miles (14 km)
Ceiling: at least 12,000 feet AGL
Clouds: sky clear below 12,000 feet AGL
Weather: no significant weather observed at this time

METAR text: CYLW 211300Z AUTO 00000KT 9SM CLR M01/M03 A3019 RMK SLP236
Conditions at: CYLW (KELOWNA APT , BC, CA) observed 1300 UTC 21 April 2019
Temperature: -1.0°C (30°F)
Dewpoint: -3.0°C (27°F) [RH = 86%]
Pressure (altimeter): 30.19 inches Hg (1022.4 mb)
[Sea-level pressure: 1023.6 mb]
Winds: calm
Visibility: 9 miles (14 km)
Ceiling: at least 12,000 feet AGL
Clouds: sky clear below 12,000 feet AGL
Weather: no significant weather observed at this time

METAR text: CYLW 211200Z AUTO 04003KT 9SM CLR M01/M03 A3017 RMK SLP227
Conditions at: CYLW (KELOWNA APT , BC, CA) observed 1200 UTC 21 April 2019
Temperature: -1.0°C (30°F)
Dewpoint: -3.0°C (27°F) [RH = 86%]
Pressure (altimeter): 30.17 inches Hg (1021.8 mb)
[Sea-level pressure: 1022.7 mb]
Winds: from the NE (40 degrees) at 3 MPH (3 knots; 1.5 m/s)
Visibility: 9 miles (14 km)
Ceiling: at least 12,000 feet AGL
Clouds: sky clear below 12,000 feet AGL
Weather: no significant weather observed at this time

METAR text: CYLW 211100Z AUTO VRB02KT 9SM CLR M00/M03 A3015 RMK SLP222
Conditions at: CYLW (KELOWNA APT , BC, CA) observed 1100 UTC 21 April 2019
Temperature: 0.0°C (32°F)
Dewpoint: -3.0°C (27°F) [RH = 80%]
Pressure (altimeter): 30.15 inches Hg (1021.1 mb)
[Sea-level pressure: 1022.2 mb]
Winds: variable direction winds at 2 MPH (2 knots; 1.0 m/s)
Visibility: 9 miles (14 km)
Ceiling: at least 12,000 feet AGL
Clouds: sky clear below 12,000 feet AGL
Weather: no significant weather observed at this time

METAR text: CYLW 211000Z AUTO 33003KT 290V030 9SM CLR 00/M02 A3013 RMK SLP214
Conditions at: CYLW (KELOWNA APT , BC, CA) observed 1000 UTC 21 April 2019
Temperature: 0.0°C (32°F)
Dewpoint: -2.0°C (28°F) [RH = 86%]
Pressure (altimeter): 30.13 inches Hg (1020.4 mb)
[Sea-level pressure: 1021.4 mb]
Winds: from the NNW (330 degrees) at 3 MPH (3 knots; 1.5 m/s)
Visibility: 9 miles (14 km)
Ceiling: at least 12,000 feet AGL
Clouds: sky clear below 12,000 feet AGL
Weather: no significant weather observed at this time

METAR text: CYLW 210900Z AUTO 35004KT 340V060 9SM CLR 01/M02 A3012 RMK SLP212
Conditions at: CYLW (KELOWNA APT , BC, CA) observed 0900 UTC 21 April 2019
Temperature: 1.0°C (34°F)
Dewpoint: -2.0°C (28°F) [RH = 80%]
Pressure (altimeter): 30.12 inches Hg (1020.1 mb)
[Sea-level pressure: 1021.2 mb]
Winds: from the N (350 degrees) at 5 MPH (4 knots; 2.1 m/s)
Visibility: 9 miles (14 km)
Ceiling: at least 12,000 feet AGL
Clouds: sky clear below 12,000 feet AGL
Weather: no significant weather observed at this time

METAR text: CYLW 210800Z AUTO 36004KT 9SM CLR 01/M02 A3011 RMK SLP207
Conditions at: CYLW (KELOWNA APT , BC, CA) observed 0800 UTC 21 April 2019
Temperature: 1.0°C (34°F)
Dewpoint: -2.0°C (28°F) [RH = 80%]
Pressure (altimeter): 30.11 inches Hg (1019.7 mb)
[Sea-level pressure: 1020.7 mb]
Winds: from the N (360 degrees) at 5 MPH (4 knots; 2.1 m/s)
Visibility: 9 miles (14 km)
Ceiling: at least 12,000 feet AGL
Clouds: sky clear below 12,000 feet AGL
Weather: no significant weather observed at this time

METAR text: CYLW 210700Z AUTO VRB04KT 9SM CLR 03/M01 A3009 RMK SLP201
Conditions at: CYLW (KELOWNA APT , BC, CA) observed 0700 UTC 21 April 2019
Temperature: 3.0°C (37°F)
Dewpoint: -1.0°C (30°F) [RH = 75%]
Pressure (altimeter): 30.09 inches Hg (1019.0 mb)
[Sea-level pressure: 1020.1 mb]
Winds: variable direction winds at 5 MPH (4 knots; 2.1 m/s)
Visibility: 9 miles (14 km)
Ceiling: at least 12,000 feet AGL
Clouds: sky clear below 12,000 feet AGL
Weather: no significant weather observed at this time

METAR text: CYLW 210600Z AUTO 01002KT 9SM CLR 04/M01 A3007 RMK SLP195
Conditions at: CYLW (KELOWNA APT , BC, CA) observed 0600 UTC 21 April 2019
Temperature: 4.0°C (39°F)
Dewpoint: -1.0°C (30°F) [RH = 70%]
Pressure (altimeter): 30.07 inches Hg (1018.4 mb)
[Sea-level pressure: 1019.5 mb]
Winds: from the N (10 degrees) at 2 MPH (2 knots; 1.0 m/s)
Visibility: 9 miles (14 km)
Ceiling: at least 12,000 feet AGL
Clouds: sky clear below 12,000 feet AGL
Weather: no significant weather observed at this time

METAR text: CYLW 210500Z AUTO 28003KT 220V300 9SM CLR 05/M01 A3006 RMK SLP188
Conditions at: CYLW (KELOWNA APT , BC, CA) observed 0500 UTC 21 April 2019
Temperature: 5.0°C (41°F)
Dewpoint: -1.0°C (30°F) [RH = 65%]
Pressure (altimeter): 30.06 inches Hg (1018.0 mb)
[Sea-level pressure: 1018.8 mb]
Winds: from the W (280 degrees) at 3 MPH (3 knots; 1.5 m/s)
Visibility: 9 miles (14 km)
Ceiling: at least 12,000 feet AGL
Clouds: sky clear below 12,000 feet AGL
Weather: no significant weather observed at this time

METAR text: CYLW 210400Z AUTO VRB02KT 9SM CLR 07/M01 A3003 RMK SLP180
Conditions at: CYLW (KELOWNA APT , BC, CA) observed 0400 UTC 21 April 2019
Temperature: 7.0°C (45°F)
Dewpoint: -1.0°C (30°F) [RH = 57%]
Pressure (altimeter): 30.03 inches Hg (1017.0 mb)
[Sea-level pressure: 1018.0 mb]
Winds: variable direction winds at 2 MPH (2 knots; 1.0 m/s)
Visibility: 9 miles (14 km)
Ceiling: at least 12,000 feet AGL
Clouds: sky clear below 12,000 feet AGL
Weather: no significant weather observed at this time

METAR text: CYLW 210300Z AUTO 36005KT 9SM CLR 10/M02 A3001 RMK SLP171
Conditions at: CYLW (KELOWNA APT , BC, CA) observed 0300 UTC 21 April 2019
Temperature: 10.0°C (50°F)
Dewpoint: -2.0°C (28°F) [RH = 43%]
Pressure (altimeter): 30.01 inches Hg (1016.3 mb)
[Sea-level pressure: 1017.1 mb]
Winds: from the N (360 degrees) at 6 MPH (5 knots; 2.6 m/s)
Visibility: 9 miles (14 km)
Ceiling: at least 12,000 feet AGL
Clouds: sky clear below 12,000 feet AGL
Weather: no significant weather observed at this time

METAR text: CYLW 210200Z AUTO 33008KT 9SM CLR 14/M03 A2999 RMK SLP164 DENSITY ALT 1500FT
Conditions at: CYLW (KELOWNA APT , BC, CA) observed 0200 UTC 21 April 2019
Temperature: 14.0°C (57°F)
Dewpoint: -3.0°C (27°F) [RH = 31%]
Pressure (altimeter): 29.99 inches Hg (1015.7 mb)
[Sea-level pressure: 1016.4 mb]
Winds: from the NNW (330 degrees) at 9 MPH (8 knots; 4.1 m/s)
Visibility: 9 miles (14 km)
Ceiling: at least 12,000 feet AGL
Clouds: sky clear below 12,000 feet AGL
Weather: no significant weather observed at this time

METAR text: CYLW 210100Z AUTO 34012G22KT 9SM CLR 15/M03 A2998 RMK SLP163 DENSITY ALT 1600FT
Conditions at: CYLW (KELOWNA APT , BC, CA) observed 0100 UTC 21 April 2019
Temperature: 15.0°C (59°F)
Dewpoint: -3.0°C (27°F) [RH = 29%]
Pressure (altimeter): 29.98 inches Hg (1015.3 mb)
[Sea-level pressure: 1016.3 mb]
Winds: from the NNW (340 degrees) at 14 MPH (12 knots; 6.2 m/s)
gusting to 25 MPH (22 knots; 11.3 m/s)
Visibility: 9 miles (14 km)
Ceiling: at least 12,000 feet AGL
Clouds: sky clear below 12,000 feet AGL
Weather: no significant weather observed at this time

METAR text: CYLW 210000Z AUTO 35014G19KT 9SM CLR 16/M04 A2997 RMK SLP158 DENSITY ALT 1700FT
Conditions at: CYLW (KELOWNA APT , BC, CA) observed 0000 UTC 21 April 2019
Temperature: 16.0°C (61°F)
Dewpoint: -4.0°C (25°F) [RH = 25%]
Pressure (altimeter): 29.97 inches Hg (1015.0 mb)
[Sea-level pressure: 1015.8 mb]
Winds: from the N (350 degrees) at 16 MPH (14 knots; 7.2 m/s)
gusting to 22 MPH (19 knots; 9.8 m/s)
Visibility: 9 miles (14 km)
Ceiling: at least 12,000 feet AGL
Clouds: sky clear below 12,000 feet AGL
Weather: no significant weather observed at this time

METAR text: CYLW 202300Z AUTO 35015G21KT 9SM CLR 16/M04 A2997 RMK SLP158 DENSITY ALT 1700FT
Conditions at: CYLW (KELOWNA APT , BC, CA) observed 2300 UTC 20 April 2019
Temperature: 16.0°C (61°F)
Dewpoint: -4.0°C (25°F) [RH = 25%]
Pressure (altimeter): 29.97 inches Hg (1015.0 mb)
[Sea-level pressure: 1015.8 mb]
Winds: from the N (350 degrees) at 17 MPH (15 knots; 7.7 m/s)
gusting to 24 MPH (21 knots; 10.8 m/s)
Visibility: 9 miles (14 km)
Ceiling: at least 12,000 feet AGL
Clouds: sky clear below 12,000 feet AGL
Weather: no significant weather observed at this time

METAR text: CYLW 202200Z AUTO 33016G23KT 270V340 9SM CLR 15/M02 A2998 RMK SLP160 DENSITY ALT 1600FT
Conditions at: CYLW (KELOWNA APT , BC, CA) observed 2200 UTC 20 April 2019
Temperature: 15.0°C (59°F)
Dewpoint: -2.0°C (28°F) [RH = 31%]
Pressure (altimeter): 29.98 inches Hg (1015.3 mb)
[Sea-level pressure: 1016.0 mb]
Winds: from the NNW (330 degrees) at 18 MPH (16 knots; 8.2 m/s)
gusting to 26 MPH (23 knots; 11.8 m/s)
Visibility: 9 miles (14 km)
Ceiling: at least 12,000 feet AGL
Clouds: sky clear below 12,000 feet AGL
Weather: no significant weather observed at this time

METAR text: CYLW 202100Z AUTO 35010G21KT 310V030 9SM CLR 14/M04 A2999 RMK SLP166 DENSITY ALT 1500FT
Conditions at: CYLW (KELOWNA APT , BC, CA) observed 2100 UTC 20 April 2019
Temperature: 14.0°C (57°F)
Dewpoint: -4.0°C (25°F) [RH = 28%]
Pressure (altimeter): 29.99 inches Hg (1015.7 mb)
[Sea-level pressure: 1016.6 mb]
Winds: from the N (350 degrees) at 12 MPH (10 knots; 5.1 m/s)
gusting to 24 MPH (21 knots; 10.8 m/s)
Visibility: 9 miles (14 km)
Ceiling: at least 12,000 feet AGL
Clouds: sky clear below 12,000 feet AGL
Weather: no significant weather observed at this time

METAR text: CYLW 202000Z AUTO 34010G22KT 300V360 9SM CLR 14/M01 A3000 RMK SLP167
Conditions at: CYLW (KELOWNA APT , BC, CA) observed 2000 UTC 20 April 2019
Temperature: 14.0°C (57°F)
Dewpoint: -1.0°C (30°F) [RH = 36%]
Pressure (altimeter): 30.00 inches Hg (1016.0 mb)
[Sea-level pressure: 1016.7 mb]
Winds: from the NNW (340 degrees) at 12 MPH (10 knots; 5.1 m/s)
gusting to 25 MPH (22 knots; 11.3 m/s)
Visibility: 9 miles (14 km)
Ceiling: at least 12,000 feet AGL
Clouds: sky clear below 12,000 feet AGL
Weather: no significant weather observed at this time

METAR text: CYLW 201918Z AUTO 34018KT 330V070 9SM CLR 13/M02 A3001 RMK SLP170
Conditions at: CYLW (KELOWNA APT , BC, CA) observed 1918 UTC 20 April 2019
Temperature: 13.0°C (55°F)
Dewpoint: -2.0°C (28°F) [RH = 35%]
Pressure (altimeter): 30.01 inches Hg (1016.3 mb)
[Sea-level pressure: 1017.0 mb]
Winds: from the NNW (340 degrees) at 21 MPH (18 knots; 9.3 m/s)
Visibility: 9 miles (14 km)
Ceiling: at least 12,000 feet AGL
Clouds: sky clear below 12,000 feet AGL
Weather: no significant weather observed at this time

METAR text: CYLW 201900Z AUTO 36006G17KT 330V070 9SM CLR 13/M04 A3001 RMK SLP171
Conditions at: CYLW (KELOWNA APT , BC, CA) observed 1900 UTC 20 April 2019
Temperature: 13.0°C (55°F)
Dewpoint: -4.0°C (25°F) [RH = 30%]
Pressure (altimeter): 30.01 inches Hg (1016.3 mb)
[Sea-level pressure: 1017.1 mb]
Winds: from the N (360 degrees) at 7 MPH (6 knots; 3.1 m/s)
gusting to 20 MPH (17 knots; 8.7 m/s)
Visibility: 9 miles (14 km)
Ceiling: at least 12,000 feet AGL
Clouds: sky clear below 12,000 feet AGL
Weather: no significant weather observed at this time

METAR text: CYLW 201800Z AUTO 01010G22KT 320V030 9SM CLR 12/M01 A3002 RMK SLP174
Conditions at: CYLW (KELOWNA APT , BC, CA) observed 1800 UTC 20 April 2019
Temperature: 12.0°C (54°F)
Dewpoint: -1.0°C (30°F) [RH = 40%]
Pressure (altimeter): 30.02 inches Hg (1016.7 mb)
[Sea-level pressure: 1017.4 mb]
Winds: from the N (10 degrees) at 12 MPH (10 knots; 5.1 m/s)
gusting to 25 MPH (22 knots; 11.3 m/s)
Visibility: 9 miles (14 km)
Ceiling: at least 12,000 feet AGL
Clouds: sky clear below 12,000 feet AGL
Weather: no significant weather observed at this time

METAR text: CYLW 201700Z AUTO 34019KT 9SM CLR 12/02 A3002 RMK SLP171
Conditions at: CYLW (KELOWNA APT , BC, CA) observed 1700 UTC 20 April 2019
Temperature: 12.0°C (54°F)
Dewpoint: 2.0°C (36°F) [RH = 50%]
Pressure (altimeter): 30.02 inches Hg (1016.7 mb)
[Sea-level pressure: 1017.1 mb]
Winds: from the NNW (340 degrees) at 22 MPH (19 knots; 9.8 m/s)
Visibility: 9 miles (14 km)
Ceiling: at least 12,000 feet AGL
Clouds: sky clear below 12,000 feet AGL
Weather: no significant weather observed at this time

METAR text: CYLW 201636Z AUTO 35015G21KT 330V050 9SM CLR 11/04 A3002 RMK SLP171
Conditions at: CYLW (KELOWNA APT , BC, CA) observed 1636 UTC 20 April 2019
Temperature: 11.0°C (52°F)
Dewpoint: 4.0°C (39°F) [RH = 62%]
Pressure (altimeter): 30.02 inches Hg (1016.7 mb)
[Sea-level pressure: 1017.1 mb]
Winds: from the N (350 degrees) at 17 MPH (15 knots; 7.7 m/s)
gusting to 24 MPH (21 knots; 10.8 m/s)
Visibility: 9 miles (14 km)
Ceiling: at least 12,000 feet AGL
Clouds: sky clear below 12,000 feet AGL
Weather: no significant weather observed at this time

METAR text: CYLW 201600Z AUTO VRB04KT 9SM CLR 09/04 A3002 RMK SLP174
Conditions at: CYLW (KELOWNA APT , BC, CA) observed 1600 UTC 20 April 2019
Temperature: 9.0°C (48°F)
Dewpoint: 4.0°C (39°F) [RH = 71%]
Pressure (altimeter): 30.02 inches Hg (1016.7 mb)
[Sea-level pressure: 1017.4 mb]
Winds: variable direction winds at 5 MPH (4 knots; 2.1 m/s)
Visibility: 9 miles (14 km)
Ceiling: at least 12,000 feet AGL
Clouds: sky clear below 12,000 feet AGL
Weather: no significant weather observed at this time

METAR text: CYLW 201500Z AUTO 35007KT 9SM CLR 07/04 A3002 RMK SLP175
Conditions at: CYLW (KELOWNA APT , BC, CA) observed 1500 UTC 20 April 2019
Temperature: 7.0°C (45°F)
Dewpoint: 4.0°C (39°F) [RH = 81%]
Pressure (altimeter): 30.02 inches Hg (1016.7 mb)
[Sea-level pressure: 1017.5 mb]
Winds: from the N (350 degrees) at 8 MPH (7 knots; 3.6 m/s)
Visibility: 9 miles (14 km)
Ceiling: at least 12,000 feet AGL
Clouds: sky clear below 12,000 feet AGL
Weather: no significant weather observed at this time

Forecast for: CYLW (KELOWNA APT , BC, CA)
Text: TAF CYLW 220038Z 2201/2213 VRB03KT P6SM FEW140 RMK FCST BASED ON AUTO OBS. NXT FCST BY 220700Z
Forecast period: 0100 to 1300 UTC 22 April 2019
Forecast type: FROM: standard forecast or significant change
Winds: variable direction winds at 3 MPH (3 knots; 1.5 m/s)
Visibility: 6 or more miles 10+ km)
Ceiling: at least 12,000 feet AGL
Clouds: few clouds at 14000 feet AGL
Weather: no significant weather forecast for this period